sensor_id;sensor_type;location;lat;lon;timestamp;P1;durP1;ratioP1;P2;durP2;ratioP2
3726;SDS011;1879;45.876;12.300;2023-07-13T00:01:59;7.83;;;4.40;;
3726;SDS011;1879;45.876;12.300;2023-07-13T00:04:26;7.37;;;4.73;;
3726;SDS011;1879;45.876;12.300;2023-07-13T00:06:53;6.13;;;4.83;;
3726;SDS011;1879;45.876;12.300;2023-07-13T00:09:22;5.07;;;4.30;;
3726;SDS011;1879;45.876;12.300;2023-07-13T00:11:50;7.80;;;5.13;;
3726;SDS011;1879;45.876;12.300;2023-07-13T00:14:18;9.10;;;5.23;;
3726;SDS011;1879;45.876;12.300;2023-07-13T00:16:46;5.90;;;4.60;;
3726;SDS011;1879;45.876;12.300;2023-07-13T00:19:13;5.90;;;5.30;;
3726;SDS011;1879;45.876;12.300;2023-07-13T00:21:41;8.13;;;6.17;;
3726;SDS011;1879;45.876;12.300;2023-07-13T00:24:09;13.40;;;7.33;;
3726;SDS011;1879;45.876;12.300;2023-07-13T00:26:40;10.40;;;5.17;;
3726;SDS011;1879;45.876;12.300;2023-07-13T00:29:10;8.37;;;5.47;;
3726;SDS011;1879;45.876;12.300;2023-07-13T00:31:37;11.00;;;7.20;;
3726;SDS011;1879;45.876;12.300;2023-07-13T00:34:05;10.43;;;6.20;;
3726;SDS011;1879;45.876;12.300;2023-07-13T00:36:32;13.80;;;7.73;;
3726;SDS011;1879;45.876;12.300;2023-07-13T00:38:59;16.17;;;10.00;;
3726;SDS011;1879;45.876;12.300;2023-07-13T00:41:26;13.13;;;8.60;;
3726;SDS011;1879;45.876;12.300;2023-07-13T00:43:54;16.87;;;9.53;;
3726;SDS011;1879;45.876;12.300;2023-07-13T00:46:23;7.53;;;5.97;;
3726;SDS011;1879;45.876;12.300;2023-07-13T00:48:52;8.20;;;5.90;;
3726;SDS011;1879;45.876;12.300;2023-07-13T00:51:23;5.70;;;4.40;;
3726;SDS011;1879;45.876;12.300;2023-07-13T00:53:56;10.03;;;6.17;;
3726;SDS011;1879;45.876;12.300;2023-07-13T00:56:25;10.70;;;6.63;;
3726;SDS011;1879;45.876;12.300;2023-07-13T00:58:54;11.33;;;5.77;;
3726;SDS011;1879;45.876;12.300;2023-07-13T01:01:23;14.03;;;7.60;;
3726;SDS011;1879;45.876;12.300;2023-07-13T01:03:50;13.90;;;8.43;;
3726;SDS011;1879;45.876;12.300;2023-07-13T01:06:19;12.77;;;9.20;;
3726;SDS011;1879;45.876;12.300;2023-07-13T01:08:46;10.73;;;8.30;;
3726;SDS011;1879;45.876;12.300;2023-07-13T01:11:15;16.30;;;9.60;;
3726;SDS011;1879;45.876;12.300;2023-07-13T01:13:45;13.47;;;8.47;;
3726;SDS011;1879;45.876;12.300;2023-07-13T01:16:15;11.20;;;8.83;;
3726;SDS011;1879;45.876;12.300;2023-07-13T01:18:44;8.77;;;7.80;;
3726;SDS011;1879;45.876;12.300;2023-07-13T01:21:13;12.13;;;9.10;;
3726;SDS011;1879;45.876;12.300;2023-07-13T01:23:40;12.07;;;7.87;;
3726;SDS011;1879;45.876;12.300;2023-07-13T01:26:09;12.47;;;6.83;;
3726;SDS011;1879;45.876;12.300;2023-07-13T01:28:36;7.20;;;6.40;;
3726;SDS011;1879;45.876;12.300;2023-07-13T01:31:04;10.13;;;7.60;;
3726;SDS011;1879;45.876;12.300;2023-07-13T01:33:31;9.60;;;7.60;;
3726;SDS011;1879;45.876;12.300;2023-07-13T01:35:59;9.60;;;6.90;;
3726;SDS011;1879;45.876;12.300;2023-07-13T01:38:28;7.73;;;6.50;;
3726;SDS011;1879;45.876;12.300;2023-07-13T01:40:56;12.17;;;6.90;;
3726;SDS011;1879;45.876;12.300;2023-07-13T01:43:23;14.17;;;8.67;;
3726;SDS011;1879;45.876;12.300;2023-07-13T01:45:50;9.83;;;7.63;;
3726;SDS011;1879;45.876;12.300;2023-07-13T01:48:18;9.63;;;6.70;;
3726;SDS011;1879;45.876;12.300;2023-07-13T01:50:45;12.60;;;7.90;;
3726;SDS011;1879;45.876;12.300;2023-07-13T01:53:13;18.77;;;9.30;;
3726;SDS011;1879;45.876;12.300;2023-07-13T01:55:41;11.90;;;8.87;;
3726;SDS011;1879;45.876;12.300;2023-07-13T01:58:08;23.53;;;11.93;;
3726;SDS011;1879;45.876;12.300;2023-07-13T02:00:36;14.83;;;9.50;;
3726;SDS011;1879;45.876;12.300;2023-07-13T02:03:03;10.37;;;7.90;;
3726;SDS011;1879;45.876;12.300;2023-07-13T02:05:30;15.00;;;8.37;;
3726;SDS011;1879;45.876;12.300;2023-07-13T02:07:58;11.20;;;8.30;;
3726;SDS011;1879;45.876;12.300;2023-07-13T02:10:25;11.77;;;8.43;;
3726;SDS011;1879;45.876;12.300;2023-07-13T02:12:54;15.37;;;9.60;;
3726;SDS011;1879;45.876;12.300;2023-07-13T02:15:22;11.07;;;8.70;;
3726;SDS011;1879;45.876;12.300;2023-07-13T02:17:49;9.53;;;7.47;;
3726;SDS011;1879;45.876;12.300;2023-07-13T02:20:17;12.90;;;9.70;;
3726;SDS011;1879;45.876;12.300;2023-07-13T02:22:44;13.73;;;8.23;;
3726;SDS011;1879;45.876;12.300;2023-07-13T02:25:11;13.10;;;7.50;;
3726;SDS011;1879;45.876;12.300;2023-07-13T02:27:39;13.27;;;7.23;;
3726;SDS011;1879;45.876;12.300;2023-07-13T02:30:08;7.57;;;6.70;;
3726;SDS011;1879;45.876;12.300;2023-07-13T02:32:35;11.47;;;7.87;;
3726;SDS011;1879;45.876;12.300;2023-07-13T02:35:03;11.17;;;7.43;;
3726;SDS011;1879;45.876;12.300;2023-07-13T02:37:30;9.93;;;7.67;;
3726;SDS011;1879;45.876;12.300;2023-07-13T02:39:58;12.10;;;6.83;;
3726;SDS011;1879;45.876;12.300;2023-07-13T02:42:25;8.77;;;7.30;;
3726;SDS011;1879;45.876;12.300;2023-07-13T02:44:52;11.27;;;6.90;;
3726;SDS011;1879;45.876;12.300;2023-07-13T02:47:21;11.43;;;8.80;;
3726;SDS011;1879;45.876;12.300;2023-07-13T02:49:48;9.47;;;6.33;;
3726;SDS011;1879;45.876;12.300;2023-07-13T02:52:15;8.90;;;6.90;;
3726;SDS011;1879;45.876;12.300;2023-07-13T02:54:43;11.90;;;6.53;;
3726;SDS011;1879;45.876;12.300;2023-07-13T02:57:10;6.73;;;5.83;;
3726;SDS011;1879;45.876;12.300;2023-07-13T02:59:37;7.30;;;6.33;;
3726;SDS011;1879;45.876;12.300;2023-07-13T03:02:04;6.67;;;5.47;;
3726;SDS011;1879;45.876;12.300;2023-07-13T03:04:34;6.63;;;5.77;;
3726;SDS011;1879;45.876;12.300;2023-07-13T03:07:02;7.93;;;6.80;;
3726;SDS011;1879;45.876;12.300;2023-07-13T03:09:29;15.53;;;6.20;;
3726;SDS011;1879;45.876;12.300;2023-07-13T03:11:57;8.50;;;6.50;;
3726;SDS011;1879;45.876;12.300;2023-07-13T03:14:24;10.10;;;6.00;;
3726;SDS011;1879;45.876;12.300;2023-07-13T03:16:51;9.93;;;6.70;;
3726;SDS011;1879;45.876;12.300;2023-07-13T03:19:18;8.83;;;6.10;;
3726;SDS011;1879;45.876;12.300;2023-07-13T03:21:47;7.37;;;6.10;;
3726;SDS011;1879;45.876;12.300;2023-07-13T03:24:14;12.83;;;6.20;;
3726;SDS011;1879;45.876;12.300;2023-07-13T03:26:42;11.23;;;5.70;;
3726;SDS011;1879;45.876;12.300;2023-07-13T03:29:09;9.30;;;6.57;;
3726;SDS011;1879;45.876;12.300;2023-07-13T03:31:36;9.57;;;6.87;;
3726;SDS011;1879;45.876;12.300;2023-07-13T03:34:03;10.17;;;7.67;;
3726;SDS011;1879;45.876;12.300;2023-07-13T03:36:31;9.20;;;7.70;;
3726;SDS011;1879;45.876;12.300;2023-07-13T03:39:00;6.70;;;5.67;;
3726;SDS011;1879;45.876;12.300;2023-07-13T03:41:28;10.80;;;7.47;;
3726;SDS011;1879;45.876;12.300;2023-07-13T03:43:55;9.70;;;6.73;;
3726;SDS011;1879;45.876;12.300;2023-07-13T03:46:23;7.70;;;6.97;;
3726;SDS011;1879;45.876;12.300;2023-07-13T03:48:50;8.20;;;5.43;;
3726;SDS011;1879;45.876;12.300;2023-07-13T03:51:18;8.17;;;6.57;;
3726;SDS011;1879;45.876;12.300;2023-07-13T03:53:46;10.37;;;7.00;;
3726;SDS011;1879;45.876;12.300;2023-07-13T03:56:15;17.53;;;7.10;;
3726;SDS011;1879;45.876;12.300;2023-07-13T03:58:43;7.17;;;5.57;;
3726;SDS011;1879;45.876;12.300;2023-07-13T04:01:11;7.37;;;5.20;;
3726;SDS011;1879;45.876;12.300;2023-07-13T04:03:39;9.10;;;6.57;;
3726;SDS011;1879;45.876;12.300;2023-07-13T04:06:07;8.23;;;7.43;;
3726;SDS011;1879;45.876;12.300;2023-07-13T04:08:35;9.03;;;7.30;;
3726;SDS011;1879;45.876;12.300;2023-07-13T04:11:04;15.13;;;7.27;;
3726;SDS011;1879;45.876;12.300;2023-07-13T04:13:32;8.17;;;5.97;;
3726;SDS011;1879;45.876;12.300;2023-07-13T04:16:00;7.30;;;5.57;;
3726;SDS011;1879;45.876;12.300;2023-07-13T04:18:27;12.07;;;6.10;;
3726;SDS011;1879;45.876;12.300;2023-07-13T04:20:54;8.47;;;6.70;;
3726;SDS011;1879;45.876;12.300;2023-07-13T04:23:21;12.10;;;7.20;;
3726;SDS011;1879;45.876;12.300;2023-07-13T04:25:51;9.40;;;5.63;;
3726;SDS011;1879;45.876;12.300;2023-07-13T04:28:18;10.53;;;5.67;;
3726;SDS011;1879;45.876;12.300;2023-07-13T04:30:47;7.93;;;5.80;;
3726;SDS011;1879;45.876;12.300;2023-07-13T04:33:15;5.90;;;5.30;;
3726;SDS011;1879;45.876;12.300;2023-07-13T04:35:43;8.43;;;4.37;;
3726;SDS011;1879;45.876;12.300;2023-07-13T04:38:11;8.40;;;4.60;;
3726;SDS011;1879;45.876;12.300;2023-07-13T04:40:40;6.50;;;5.00;;
3726;SDS011;1879;45.876;12.300;2023-07-13T04:43:09;6.93;;;5.57;;
3726;SDS011;1879;45.876;12.300;2023-07-13T04:45:37;5.70;;;4.30;;
3726;SDS011;1879;45.876;12.300;2023-07-13T04:48:05;7.50;;;5.20;;
3726;SDS011;1879;45.876;12.300;2023-07-13T04:50:34;4.83;;;4.00;;
3726;SDS011;1879;45.876;12.300;2023-07-13T04:53:02;6.77;;;4.90;;
3726;SDS011;1879;45.876;12.300;2023-07-13T04:55:30;7.40;;;4.73;;
3726;SDS011;1879;45.876;12.300;2023-07-13T04:57:57;5.93;;;4.90;;
3726;SDS011;1879;45.876;12.300;2023-07-13T05:00:25;6.80;;;5.47;;
3726;SDS011;1879;45.876;12.300;2023-07-13T05:02:54;6.77;;;5.70;;
3726;SDS011;1879;45.876;12.300;2023-07-13T05:05:23;5.60;;;5.00;;
3726;SDS011;1879;45.876;12.300;2023-07-13T05:07:51;5.87;;;4.60;;
3726;SDS011;1879;45.876;12.300;2023-07-13T05:10:18;8.77;;;5.60;;
3726;SDS011;1879;45.876;12.300;2023-07-13T05:12:45;7.43;;;5.90;;
3726;SDS011;1879;45.876;12.300;2023-07-13T05:15:13;6.53;;;5.33;;
3726;SDS011;1879;45.876;12.300;2023-07-13T05:17:40;7.17;;;5.63;;
3726;SDS011;1879;45.876;12.300;2023-07-13T05:20:08;6.03;;;5.50;;
3726;SDS011;1879;45.876;12.300;2023-07-13T05:22:37;8.53;;;5.90;;
3726;SDS011;1879;45.876;12.300;2023-07-13T05:25:05;9.47;;;6.00;;
3726;SDS011;1879;45.876;12.300;2023-07-13T05:27:32;6.33;;;3.80;;
3726;SDS011;1879;45.876;12.300;2023-07-13T05:30:00;8.97;;;4.40;;
3726;SDS011;1879;45.876;12.300;2023-07-13T05:32:27;4.70;;;3.30;;
3726;SDS011;1879;45.876;12.300;2023-07-13T05:34:54;7.07;;;4.07;;
3726;SDS011;1879;45.876;12.300;2023-07-13T05:37:21;4.73;;;3.17;;
3726;SDS011;1879;45.876;12.300;2023-07-13T05:39:50;5.50;;;2.97;;
3726;SDS011;1879;45.876;12.300;2023-07-13T05:42:17;5.10;;;3.23;;
3726;SDS011;1879;45.876;12.300;2023-07-13T05:44:45;8.90;;;3.83;;
3726;SDS011;1879;45.876;12.300;2023-07-13T05:47:12;5.57;;;3.40;;
3726;SDS011;1879;45.876;12.300;2023-07-13T05:49:40;4.03;;;3.50;;
3726;SDS011;1879;45.876;12.300;2023-07-13T05:52:07;4.50;;;2.90;;
3726;SDS011;1879;45.876;12.300;2023-07-13T05:54:34;5.23;;;3.57;;
3726;SDS011;1879;45.876;12.300;2023-07-13T05:57:03;6.53;;;3.87;;
3726;SDS011;1879;45.876;12.300;2023-07-13T05:59:31;4.83;;;3.20;;
3726;SDS011;1879;45.876;12.300;2023-07-13T06:01:58;6.80;;;3.57;;
3726;SDS011;1879;45.876;12.300;2023-07-13T06:04:25;3.17;;;2.87;;
3726;SDS011;1879;45.876;12.300;2023-07-13T06:06:52;4.23;;;2.90;;
3726;SDS011;1879;45.876;12.300;2023-07-13T06:09:20;4.03;;;2.90;;
3726;SDS011;1879;45.876;12.300;2023-07-13T06:11:47;3.67;;;2.50;;
3726;SDS011;1879;45.876;12.300;2023-07-13T06:14:15;2.80;;;2.53;;
3726;SDS011;1879;45.876;12.300;2023-07-13T06:16:43;3.40;;;2.40;;
3726;SDS011;1879;45.876;12.300;2023-07-13T06:19:10;3.57;;;2.10;;
3726;SDS011;1879;45.876;12.300;2023-07-13T06:21:38;3.80;;;2.50;;
3726;SDS011;1879;45.876;12.300;2023-07-13T06:24:05;3.70;;;2.17;;
3726;SDS011;1879;45.876;12.300;2023-07-13T06:26:32;3.83;;;2.47;;
3726;SDS011;1879;45.876;12.300;2023-07-13T06:28:59;3.20;;;2.10;;
3726;SDS011;1879;45.876;12.300;2023-07-13T06:31:28;4.00;;;2.30;;
3726;SDS011;1879;45.876;12.300;2023-07-13T06:33:55;2.63;;;2.37;;
3726;SDS011;1879;45.876;12.300;2023-07-13T06:36:22;3.60;;;2.10;;
3726;SDS011;1879;45.876;12.300;2023-07-13T06:38:50;3.17;;;2.10;;
3726;SDS011;1879;45.876;12.300;2023-07-13T06:41:17;4.17;;;2.30;;
3726;SDS011;1879;45.876;12.300;2023-07-13T06:43:45;6.20;;;2.53;;
3726;SDS011;1879;45.876;12.300;2023-07-13T06:46:12;2.80;;;2.20;;
3726;SDS011;1879;45.876;12.300;2023-07-13T06:48:41;8.47;;;2.33;;
3726;SDS011;1879;45.876;12.300;2023-07-13T06:51:08;4.13;;;2.30;;
3726;SDS011;1879;45.876;12.300;2023-07-13T06:53:35;2.77;;;2.30;;
3726;SDS011;1879;45.876;12.300;2023-07-13T06:56:03;3.37;;;2.50;;
3726;SDS011;1879;45.876;12.300;2023-07-13T06:58:30;11.63;;;3.40;;
3726;SDS011;1879;45.876;12.300;2023-07-13T07:00:57;9.60;;;2.60;;
3726;SDS011;1879;45.876;12.300;2023-07-13T07:03:25;3.03;;;2.30;;
3726;SDS011;1879;45.876;12.300;2023-07-13T07:05:53;5.17;;;2.23;;
3726;SDS011;1879;45.876;12.300;2023-07-13T07:08:21;4.30;;;2.60;;
3726;SDS011;1879;45.876;12.300;2023-07-13T07:10:48;6.90;;;2.40;;
3726;SDS011;1879;45.876;12.300;2023-07-13T07:13:19;2.20;;;2.00;;
3726;SDS011;1879;45.876;12.300;2023-07-13T07:15:46;5.43;;;2.17;;
3726;SDS011;1879;45.876;12.300;2023-07-13T07:18:13;3.30;;;2.60;;
3726;SDS011;1879;45.876;12.300;2023-07-13T07:20:40;3.00;;;2.27;;
3726;SDS011;1879;45.876;12.300;2023-07-13T07:23:09;3.60;;;2.10;;
3726;SDS011;1879;45.876;12.300;2023-07-13T07:25:36;5.80;;;2.60;;
3726;SDS011;1879;45.876;12.300;2023-07-13T07:28:07;4.50;;;2.30;;
3726;SDS011;1879;45.876;12.300;2023-07-13T07:30:34;5.73;;;2.07;;
3726;SDS011;1879;45.876;12.300;2023-07-13T07:33:01;4.20;;;2.40;;
3726;SDS011;1879;45.876;12.300;2023-07-13T07:35:28;2.60;;;2.40;;
3726;SDS011;1879;45.876;12.300;2023-07-13T07:37:56;4.30;;;2.40;;
3726;SDS011;1879;45.876;12.300;2023-07-13T07:40:24;3.90;;;2.37;;
3726;SDS011;1879;45.876;12.300;2023-07-13T07:42:52;2.60;;;2.40;;
3726;SDS011;1879;45.876;12.300;2023-07-13T07:45:20;4.80;;;2.33;;
3726;SDS011;1879;45.876;12.300;2023-07-13T07:47:47;4.73;;;2.67;;
3726;SDS011;1879;45.876;12.300;2023-07-13T07:50:14;3.80;;;2.60;;
3726;SDS011;1879;45.876;12.300;2023-07-13T07:52:42;4.60;;;2.17;;
3726;SDS011;1879;45.876;12.300;2023-07-13T07:55:10;2.97;;;2.67;;
3726;SDS011;1879;45.876;12.300;2023-07-13T07:57:38;4.90;;;2.33;;
3726;SDS011;1879;45.876;12.300;2023-07-13T08:00:06;5.97;;;2.20;;
3726;SDS011;1879;45.876;12.300;2023-07-13T08:02:33;5.20;;;2.13;;
3726;SDS011;1879;45.876;12.300;2023-07-13T08:05:01;3.80;;;2.50;;
3726;SDS011;1879;45.876;12.300;2023-07-13T08:07:29;2.70;;;2.23;;
3726;SDS011;1879;45.876;12.300;2023-07-13T08:09:57;4.37;;;2.53;;
3726;SDS011;1879;45.876;12.300;2023-07-13T08:12:24;5.63;;;2.50;;
3726;SDS011;1879;45.876;12.300;2023-07-13T08:14:53;3.73;;;2.27;;
3726;SDS011;1879;45.876;12.300;2023-07-13T08:17:22;4.50;;;2.40;;
3726;SDS011;1879;45.876;12.300;2023-07-13T08:19:50;3.47;;;2.10;;
3726;SDS011;1879;45.876;12.300;2023-07-13T08:22:17;3.63;;;2.40;;
3726;SDS011;1879;45.876;12.300;2023-07-13T08:24:44;2.47;;;2.27;;
3726;SDS011;1879;45.876;12.300;2023-07-13T08:27:12;5.00;;;2.20;;
3726;SDS011;1879;45.876;12.300;2023-07-13T08:29:39;3.50;;;2.50;;
3726;SDS011;1879;45.876;12.300;2023-07-13T08:32:08;5.00;;;2.53;;
3726;SDS011;1879;45.876;12.300;2023-07-13T08:34:36;4.73;;;2.13;;
3726;SDS011;1879;45.876;12.300;2023-07-13T08:37:03;4.63;;;2.50;;
3726;SDS011;1879;45.876;12.300;2023-07-13T08:39:30;4.27;;;2.20;;
3726;SDS011;1879;45.876;12.300;2023-07-13T08:42:00;2.40;;;1.90;;
3726;SDS011;1879;45.876;12.300;2023-07-13T08:44:30;3.57;;;2.17;;
3726;SDS011;1879;45.876;12.300;2023-07-13T08:47:01;3.50;;;2.60;;
3726;SDS011;1879;45.876;12.300;2023-07-13T08:49:30;5.37;;;2.20;;
3726;SDS011;1879;45.876;12.300;2023-07-13T08:52:01;4.40;;;2.40;;
3726;SDS011;1879;45.876;12.300;2023-07-13T08:54:31;4.10;;;2.10;;
3726;SDS011;1879;45.876;12.300;2023-07-13T08:56:59;3.63;;;2.30;;
3726;SDS011;1879;45.876;12.300;2023-07-13T08:59:27;6.40;;;2.93;;
3726;SDS011;1879;45.876;12.300;2023-07-13T09:02:00;3.10;;;2.53;;
3726;SDS011;1879;45.876;12.300;2023-07-13T09:04:34;4.87;;;2.63;;
3726;SDS011;1879;45.876;12.300;2023-07-13T09:07:05;5.47;;;2.90;;
3726;SDS011;1879;45.876;12.300;2023-07-13T09:09:39;3.50;;;2.80;;
3726;SDS011;1879;45.876;12.300;2023-07-13T09:12:11;5.23;;;2.80;;
3726;SDS011;1879;45.876;12.300;2023-07-13T09:14:42;7.17;;;3.40;;
3726;SDS011;1879;45.876;12.300;2023-07-13T09:17:14;4.50;;;3.47;;
3726;SDS011;1879;45.876;12.300;2023-07-13T09:19:44;5.77;;;3.10;;
3726;SDS011;1879;45.876;12.300;2023-07-13T09:22:13;6.00;;;2.90;;
3726;SDS011;1879;45.876;12.300;2023-07-13T09:24:46;7.90;;;3.33;;
3726;SDS011;1879;45.876;12.300;2023-07-13T09:27:17;4.17;;;3.10;;
3726;SDS011;1879;45.876;12.300;2023-07-13T09:29:47;10.93;;;3.20;;
3726;SDS011;1879;45.876;12.300;2023-07-13T09:32:17;4.80;;;3.13;;
3726;SDS011;1879;45.876;12.300;2023-07-13T09:34:51;3.30;;;2.93;;
3726;SDS011;1879;45.876;12.300;2023-07-13T09:37:19;3.57;;;3.27;;
3726;SDS011;1879;45.876;12.300;2023-07-13T09:39:47;3.60;;;2.90;;
3726;SDS011;1879;45.876;12.300;2023-07-13T09:42:16;4.67;;;3.30;;
3726;SDS011;1879;45.876;12.300;2023-07-13T09:44:51;5.90;;;3.90;;
3726;SDS011;1879;45.876;12.300;2023-07-13T09:47:19;9.73;;;3.77;;
3726;SDS011;1879;45.876;12.300;2023-07-13T09:49:48;4.60;;;3.17;;
3726;SDS011;1879;45.876;12.300;2023-07-13T09:52:22;3.00;;;2.80;;
3726;SDS011;1879;45.876;12.300;2023-07-13T09:54:49;4.60;;;2.70;;
3726;SDS011;1879;45.876;12.300;2023-07-13T09:57:19;3.30;;;3.00;;
3726;SDS011;1879;45.876;12.300;2023-07-13T09:59:51;4.10;;;2.87;;
3726;SDS011;1879;45.876;12.300;2023-07-13T10:02:23;4.50;;;2.90;;
3726;SDS011;1879;45.876;12.300;2023-07-13T10:04:55;3.70;;;2.60;;
3726;SDS011;1879;45.876;12.300;2023-07-13T10:07:24;3.27;;;2.97;;
3726;SDS011;1879;45.876;12.300;2023-07-13T10:09:52;4.33;;;3.13;;
3726;SDS011;1879;45.876;12.300;2023-07-13T10:12:20;3.70;;;2.93;;
3726;SDS011;1879;45.876;12.300;2023-07-13T10:14:49;3.83;;;2.90;;
3726;SDS011;1879;45.876;12.300;2023-07-13T10:17:18;3.70;;;3.10;;
3726;SDS011;1879;45.876;12.300;2023-07-13T10:19:46;6.67;;;3.03;;
3726;SDS011;1879;45.876;12.300;2023-07-13T10:22:17;6.30;;;3.47;;
3726;SDS011;1879;45.876;12.300;2023-07-13T10:24:50;5.70;;;3.20;;
3726;SDS011;1879;45.876;12.300;2023-07-13T10:27:18;5.67;;;3.07;;
3726;SDS011;1879;45.876;12.300;2023-07-13T10:29:51;9.13;;;3.40;;
3726;SDS011;1879;45.876;12.300;2023-07-13T10:32:21;4.63;;;2.83;;
3726;SDS011;1879;45.876;12.300;2023-07-13T10:34:49;9.57;;;3.47;;
3726;SDS011;1879;45.876;12.300;2023-07-13T10:37:21;5.70;;;3.17;;
3726;SDS011;1879;45.876;12.300;2023-07-13T10:39:53;5.53;;;3.07;;
3726;SDS011;1879;45.876;12.300;2023-07-13T10:42:23;4.63;;;2.97;;
3726;SDS011;1879;45.876;12.300;2023-07-13T10:44:52;3.77;;;3.00;;
3726;SDS011;1879;45.876;12.300;2023-07-13T10:47:20;6.13;;;3.10;;
3726;SDS011;1879;45.876;12.300;2023-07-13T10:49:47;6.60;;;3.40;;
3726;SDS011;1879;45.876;12.300;2023-07-13T10:52:40;4.07;;;2.70;;
3726;SDS011;1879;45.876;12.300;2023-07-13T10:57:52;3.23;;;2.80;;
3726;SDS011;1879;45.876;12.300;2023-07-13T11:00:20;3.23;;;2.80;;
3726;SDS011;1879;45.876;12.300;2023-07-13T11:02:55;2.87;;;2.47;;
3726;SDS011;1879;45.876;12.300;2023-07-13T11:05:26;4.10;;;3.10;;
3726;SDS011;1879;45.876;12.300;2023-07-13T11:07:56;2.87;;;2.67;;
3726;SDS011;1879;45.876;12.300;2023-07-13T11:13:27;4.80;;;2.50;;
3726;SDS011;1879;45.876;12.300;2023-07-13T11:15:55;4.10;;;2.60;;
3726;SDS011;1879;45.876;12.300;2023-07-13T11:18:23;3.87;;;2.87;;
3726;SDS011;1879;45.876;12.300;2023-07-13T11:20:51;4.13;;;2.30;;
3726;SDS011;1879;45.876;12.300;2023-07-13T11:23:20;2.70;;;2.40;;
3726;SDS011;1879;45.876;12.300;2023-07-13T11:25:47;3.40;;;2.20;;
3726;SDS011;1879;45.876;12.300;2023-07-13T11:28:23;6.83;;;2.50;;
3726;SDS011;1879;45.876;12.300;2023-07-13T11:31:11;3.53;;;2.47;;
3726;SDS011;1879;45.876;12.300;2023-07-13T11:33:50;5.97;;;2.70;;
3726;SDS011;1879;45.876;12.300;2023-07-13T11:36:19;3.60;;;2.40;;
3726;SDS011;1879;45.876;12.300;2023-07-13T11:38:49;6.10;;;2.20;;
3726;SDS011;1879;45.876;12.300;2023-07-13T11:41:18;5.47;;;2.80;;
3726;SDS011;1879;45.876;12.300;2023-07-13T11:43:48;7.93;;;2.53;;
3726;SDS011;1879;45.876;12.300;2023-07-13T11:46:17;2.60;;;2.13;;
3726;SDS011;1879;45.876;12.300;2023-07-13T11:48:46;5.97;;;2.20;;
3726;SDS011;1879;45.876;12.300;2023-07-13T11:51:16;5.90;;;2.50;;
3726;SDS011;1879;45.876;12.300;2023-07-13T11:53:46;2.80;;;2.50;;
3726;SDS011;1879;45.876;12.300;2023-07-13T11:56:14;2.83;;;2.53;;
3726;SDS011;1879;45.876;12.300;2023-07-13T11:58:41;4.13;;;2.90;;
3726;SDS011;1879;45.876;12.300;2023-07-13T12:01:15;4.47;;;2.83;;
3726;SDS011;1879;45.876;12.300;2023-07-13T12:03:43;4.70;;;3.13;;
3726;SDS011;1879;45.876;12.300;2023-07-13T12:06:19;3.00;;;2.70;;
3726;SDS011;1879;45.876;12.300;2023-07-13T12:08:48;4.40;;;3.00;;
3726;SDS011;1879;45.876;12.300;2023-07-13T12:11:17;13.07;;;3.87;;
3726;SDS011;1879;45.876;12.300;2023-07-13T12:13:46;12.43;;;5.67;;
3726;SDS011;1879;45.876;12.300;2023-07-13T12:16:16;13.77;;;6.10;;
3726;SDS011;1879;45.876;12.300;2023-07-13T12:18:44;9.40;;;4.70;;
3726;SDS011;1879;45.876;12.300;2023-07-13T12:21:16;10.47;;;5.97;;
3726;SDS011;1879;45.876;12.300;2023-07-13T12:23:44;9.53;;;4.60;;
3726;SDS011;1879;45.876;12.300;2023-07-13T12:26:12;9.63;;;4.77;;
3726;SDS011;1879;45.876;12.300;2023-07-13T12:28:43;3.77;;;3.27;;
3726;SDS011;1879;45.876;12.300;2023-07-13T12:31:22;6.73;;;3.57;;
3726;SDS011;1879;45.876;12.300;2023-07-13T12:33:55;3.40;;;3.10;;
3726;SDS011;1879;45.876;12.300;2023-07-13T12:36:23;4.10;;;2.80;;
3726;SDS011;1879;45.876;12.300;2023-07-13T12:38:50;6.60;;;2.83;;
3726;SDS011;1879;45.876;12.300;2023-07-13T12:41:18;6.30;;;3.70;;
3726;SDS011;1879;45.876;12.300;2023-07-13T12:43:45;7.17;;;3.30;;
3726;SDS011;1879;45.876;12.300;2023-07-13T12:46:17;4.57;;;3.03;;
3726;SDS011;1879;45.876;12.300;2023-07-13T12:48:49;5.87;;;3.40;;
3726;SDS011;1879;45.876;12.300;2023-07-13T12:51:20;4.37;;;3.20;;
3726;SDS011;1879;45.876;12.300;2023-07-13T12:53:49;4.70;;;3.47;;
3726;SDS011;1879;45.876;12.300;2023-07-13T12:56:19;8.90;;;3.13;;
3726;SDS011;1879;45.876;12.300;2023-07-13T12:58:49;4.67;;;2.87;;
3726;SDS011;1879;45.876;12.300;2023-07-13T13:01:20;4.37;;;2.70;;
3726;SDS011;1879;45.876;12.300;2023-07-13T13:03:50;4.63;;;2.70;;
3726;SDS011;1879;45.876;12.300;2023-07-13T13:06:21;5.00;;;3.37;;
3726;SDS011;1879;45.876;12.300;2023-07-13T13:08:50;5.60;;;3.20;;
3726;SDS011;1879;45.876;12.300;2023-07-13T13:11:18;4.40;;;2.60;;
3726;SDS011;1879;45.876;12.300;2023-07-13T13:13:45;3.97;;;2.70;;
3726;SDS011;1879;45.876;12.300;2023-07-13T13:16:14;7.33;;;3.37;;
3726;SDS011;1879;45.876;12.300;2023-07-13T13:18:44;4.07;;;2.90;;
3726;SDS011;1879;45.876;12.300;2023-07-13T13:21:13;5.70;;;3.37;;
3726;SDS011;1879;45.876;12.300;2023-07-13T13:23:40;4.00;;;3.30;;
3726;SDS011;1879;45.876;12.300;2023-07-13T13:26:10;4.23;;;3.60;;
3726;SDS011;1879;45.876;12.300;2023-07-13T13:28:37;5.77;;;3.73;;
3726;SDS011;1879;45.876;12.300;2023-07-13T13:31:04;5.40;;;3.90;;
3726;SDS011;1879;45.876;12.300;2023-07-13T13:33:32;4.13;;;3.73;;
3726;SDS011;1879;45.876;12.300;2023-07-13T13:35:59;4.60;;;3.57;;
3726;SDS011;1879;45.876;12.300;2023-07-13T13:38:28;7.63;;;4.00;;
3726;SDS011;1879;45.876;12.300;2023-07-13T13:40:55;4.20;;;3.67;;
3726;SDS011;1879;45.876;12.300;2023-07-13T13:43:23;6.10;;;4.27;;
3726;SDS011;1879;45.876;12.300;2023-07-13T13:45:52;6.40;;;4.80;;
3726;SDS011;1879;45.876;12.300;2023-07-13T13:48:20;4.67;;;3.47;;
3726;SDS011;1879;45.876;12.300;2023-07-13T13:50:52;6.40;;;3.80;;
3726;SDS011;1879;45.876;12.300;2023-07-13T13:53:20;3.93;;;3.63;;
3726;SDS011;1879;45.876;12.300;2023-07-13T13:55:50;5.53;;;3.97;;
3726;SDS011;1879;45.876;12.300;2023-07-13T13:58:19;4.60;;;3.87;;
3726;SDS011;1879;45.876;12.300;2023-07-13T14:00:47;6.27;;;3.77;;
3726;SDS011;1879;45.876;12.300;2023-07-13T14:03:15;5.37;;;4.00;;
3726;SDS011;1879;45.876;12.300;2023-07-13T14:05:44;5.80;;;4.50;;
3726;SDS011;1879;45.876;12.300;2023-07-13T14:08:12;4.90;;;4.40;;
3726;SDS011;1879;45.876;12.300;2023-07-13T14:10:39;5.90;;;4.53;;
3726;SDS011;1879;45.876;12.300;2023-07-13T14:13:08;9.90;;;4.87;;
3726;SDS011;1879;45.876;12.300;2023-07-13T14:15:42;11.63;;;4.60;;
3726;SDS011;1879;45.876;12.300;2023-07-13T14:18:10;8.70;;;4.43;;
3726;SDS011;1879;45.876;12.300;2023-07-13T14:20:42;5.03;;;3.87;;
3726;SDS011;1879;45.876;12.300;2023-07-13T14:23:10;5.17;;;4.20;;
3726;SDS011;1879;45.876;12.300;2023-07-13T14:25:38;4.37;;;3.97;;
3726;SDS011;1879;45.876;12.300;2023-07-13T14:28:10;4.97;;;3.70;;
3726;SDS011;1879;45.876;12.300;2023-07-13T14:30:42;5.10;;;3.73;;
3726;SDS011;1879;45.876;12.300;2023-07-13T14:33:09;6.27;;;3.63;;
3726;SDS011;1879;45.876;12.300;2023-07-13T14:35:36;6.40;;;3.97;;
3726;SDS011;1879;45.876;12.300;2023-07-13T14:38:04;6.87;;;3.50;;
3726;SDS011;1879;45.876;12.300;2023-07-13T14:40:31;7.20;;;3.80;;
3726;SDS011;1879;45.876;12.300;2023-07-13T14:42:58;3.83;;;3.30;;
3726;SDS011;1879;45.876;12.300;2023-07-13T14:45:27;4.83;;;3.57;;
3726;SDS011;1879;45.876;12.300;2023-07-13T14:47:55;6.37;;;3.57;;
3726;SDS011;1879;45.876;12.300;2023-07-13T14:50:24;4.50;;;3.67;;
3726;SDS011;1879;45.876;12.300;2023-07-13T14:52:53;5.57;;;3.70;;
3726;SDS011;1879;45.876;12.300;2023-07-13T14:55:20;4.90;;;3.70;;
3726;SDS011;1879;45.876;12.300;2023-07-13T14:57:51;7.00;;;4.67;;
3726;SDS011;1879;45.876;12.300;2023-07-13T15:00:19;4.80;;;4.00;;
3726;SDS011;1879;45.876;12.300;2023-07-13T15:02:50;4.50;;;4.07;;
3726;SDS011;1879;45.876;12.300;2023-07-13T15:05:21;8.10;;;4.40;;
3726;SDS011;1879;45.876;12.300;2023-07-13T15:07:49;5.40;;;3.83;;
3726;SDS011;1879;45.876;12.300;2023-07-13T15:10:18;5.20;;;3.70;;
3726;SDS011;1879;45.876;12.300;2023-07-13T15:12:46;5.97;;;4.37;;